createdAt,value
2017-08-11T00:04:21.791Z,15.00
2017-08-11T00:09:28.355Z,14.90
2017-08-11T00:14:31.822Z,14.90
2017-08-11T00:19:35.284Z,14.90
2017-08-11T00:24:38.468Z,14.90
2017-08-11T00:29:42.561Z,15.00
2017-08-11T00:34:45.764Z,15.10
2017-08-11T00:45:25.051Z,14.90
2017-08-11T00:50:29.278Z,14.80
2017-08-11T00:55:33.098Z,14.80
2017-08-11T01:00:36.609Z,14.90
2017-08-11T01:05:40.330Z,14.90
2017-08-11T01:10:43.515Z,14.80
2017-08-11T01:15:47.361Z,14.70
2017-08-11T01:20:51.266Z,14.80
2017-08-11T01:25:54.810Z,14.80
2017-08-11T01:30:58.094Z,14.80
2017-08-11T01:36:01.452Z,14.80
2017-08-11T01:41:05.653Z,14.80
2017-08-11T01:46:19.522Z,14.80
2017-08-11T01:56:57.522Z,14.80
2017-08-11T02:02:00.728Z,14.70
2017-08-11T02:07:03.895Z,14.80
2017-08-11T02:12:07.085Z,14.70
2017-08-11T02:17:11.129Z,14.80
2017-08-11T02:22:15.058Z,14.80
2017-08-11T02:27:18.237Z,14.80
2017-08-11T02:32:21.416Z,14.80
2017-08-11T02:37:24.595Z,14.80
2017-08-11T02:42:27.780Z,14.90
2017-08-11T02:47:30.965Z,14.90
2017-08-11T02:52:34.926Z,14.90
2017-08-11T02:57:38.220Z,14.90
2017-08-11T03:02:42.165Z,14.80
2017-08-11T03:07:45.345Z,14.90
2017-08-11T03:12:48.613Z,14.90
2017-08-11T03:17:51.805Z,14.90
2017-08-11T03:22:55.003Z,14.90
2017-08-11T03:27:58.189Z,14.90
2017-08-11T03:33:01.406Z,15.00
2017-08-11T03:38:04.582Z,14.80
2017-08-11T03:43:08.536Z,14.80
2017-08-11T03:48:11.717Z,14.80
2017-08-11T03:53:15.672Z,14.80
2017-08-11T03:58:18.956Z,14.80
2017-08-11T04:03:22.155Z,14.90
2017-08-11T04:08:26.209Z,15.00
2017-08-11T04:13:29.399Z,15.00
2017-08-11T04:18:33.079Z,15.00
2017-08-11T04:23:36.478Z,14.90
2017-08-11T04:28:39.684Z,15.00
2017-08-11T04:33:42.889Z,15.00
2017-08-11T04:38:46.088Z,15.00
2017-08-11T04:43:49.251Z,15.10
2017-08-11T04:48:53.217Z,15.00
2017-08-11T04:53:56.501Z,15.00
2017-08-11T04:58:59.859Z,14.90
2017-08-11T05:04:03.048Z,15.00
2017-08-11T05:09:07.671Z,15.00
2017-08-11T05:14:10.896Z,15.00
2017-08-11T05:19:14.086Z,15.00
2017-08-11T05:24:17.332Z,15.10
2017-08-11T05:29:20.509Z,15.20
2017-08-11T05:34:23.724Z,15.20
2017-08-11T05:39:26.926Z,15.20
2017-08-11T05:44:30.158Z,15.20
2017-08-11T05:49:33.360Z,15.30
2017-08-11T05:54:36.558Z,15.40
2017-08-11T05:59:39.753Z,15.40
2017-08-11T06:04:42.946Z,15.40
2017-08-11T06:09:46.133Z,15.30
2017-08-11T06:14:49.330Z,15.20
2017-08-11T06:19:53.323Z,14.90
2017-08-11T06:24:56.505Z,14.90
2017-08-11T06:29:59.686Z,14.90
2017-08-11T06:35:02.877Z,14.90
2017-08-11T06:40:06.835Z,15.00
2017-08-11T06:45:10.116Z,14.90
2017-08-11T06:50:14.057Z,15.00
2017-08-11T06:55:17.240Z,15.00
2017-08-11T07:00:21.392Z,14.80
2017-08-11T07:05:24.604Z,14.80
2017-08-11T07:10:27.829Z,14.90
2017-08-11T07:15:31.026Z,15.00
2017-08-11T07:20:34.214Z,15.00
2017-08-11T07:25:37.390Z,15.00
2017-08-11T07:30:40.583Z,15.20
2017-08-11T07:35:43.790Z,15.10
2017-08-11T07:40:47.035Z,15.20
2017-08-11T07:45:50.962Z,15.40
2017-08-11T07:50:54.225Z,15.40
2017-08-11T07:55:57.414Z,15.40
2017-08-11T08:01:00.608Z,15.40
2017-08-11T08:06:03.801Z,15.50
2017-08-11T08:11:07.007Z,15.40
2017-08-11T08:16:10.204Z,15.50
2017-08-11T08:21:14.160Z,15.80
2017-08-11T08:26:17.465Z,15.80
2017-08-11T08:31:20.665Z,15.90
2017-08-11T08:36:23.890Z,15.80
2017-08-11T08:41:27.082Z,16.20
2017-08-11T08:46:30.270Z,16.10
2017-08-11T08:51:33.458Z,16.40
2017-08-11T08:56:37.465Z,16.20
2017-08-11T09:01:40.714Z,16.20
2017-08-11T09:06:44.645Z,16.40
2017-08-11T09:11:47.842Z,16.40
2017-08-11T09:16:51.020Z,16.50
2017-08-11T09:21:54.211Z,16.80
2017-08-11T09:27:15.402Z,17.00
2017-08-11T09:32:46.207Z,17.30
2017-08-11T09:37:49.397Z,17.30
2017-08-11T09:42:52.608Z,17.20
2017-08-11T09:47:55.796Z,17.10
2017-08-11T09:52:59.005Z,17.00
2017-08-11T09:58:02.182Z,16.80
2017-08-11T10:03:05.385Z,16.60
2017-08-11T10:08:08.560Z,16.60
2017-08-11T10:13:12.543Z,16.50
2017-08-11T10:18:15.726Z,16.50
2017-08-11T10:23:19.050Z,16.60
2017-08-11T10:28:22.243Z,16.60
2017-08-11T10:33:25.442Z,16.50
2017-08-11T10:38:28.602Z,16.40
2017-08-11T10:43:31.800Z,16.30
2017-08-11T10:48:35.005Z,16.30
2017-08-11T10:53:38.178Z,16.30
2017-08-11T10:58:41.342Z,16.20
2017-08-11T11:03:44.521Z,16.30
2017-08-11T11:08:47.718Z,16.10
2017-08-11T11:13:50.923Z,16.10
2017-08-11T11:18:54.245Z,16.20
2017-08-11T11:23:57.431Z,16.50
2017-08-11T11:29:00.644Z,16.80
2017-08-11T11:34:03.826Z,17.00
2017-08-11T11:39:07.000Z,17.20
2017-08-11T11:44:10.958Z,17.30
2017-08-11T11:49:14.142Z,17.30
2017-08-11T11:54:18.113Z,16.80
2017-08-11T11:59:21.390Z,16.80
2017-08-11T12:04:25.278Z,16.70
2017-08-11T12:09:28.463Z,16.70
2017-08-11T12:14:31.650Z,16.70
2017-08-11T12:19:34.818Z,16.60
2017-08-11T12:24:37.990Z,16.50
2017-08-11T12:29:41.179Z,16.40
2017-08-11T12:34:44.370Z,16.40
2017-08-11T12:39:47.577Z,16.40
2017-08-11T12:44:50.785Z,16.30
2017-08-11T12:49:53.991Z,16.30
2017-08-11T12:54:57.176Z,16.20
2017-08-11T13:00:01.133Z,16.10
2017-08-11T13:05:04.327Z,16.10
2017-08-11T13:10:07.535Z,16.00
2017-08-11T13:15:10.723Z,16.00
2017-08-11T13:20:14.683Z,16.10
2017-08-11T13:25:17.865Z,16.10
2017-08-11T13:30:21.172Z,16.10
2017-08-11T13:35:25.142Z,16.20
2017-08-11T13:40:28.329Z,16.20
2017-08-11T13:45:31.554Z,16.20
2017-08-11T13:50:34.737Z,16.30
2017-08-11T13:55:37.995Z,16.20
2017-08-11T14:00:41.195Z,16.20
2017-08-11T14:05:44.381Z,16.20
2017-08-11T14:10:47.567Z,16.30
2017-08-11T14:15:50.757Z,16.40
2017-08-11T14:20:53.931Z,16.50
2017-08-11T14:25:57.133Z,16.80
2017-08-11T14:31:00.335Z,16.70
2017-08-11T14:36:03.593Z,16.60
2017-08-11T14:41:06.798Z,16.60
2017-08-11T14:46:09.986Z,16.50
2017-08-11T14:51:13.897Z,16.30
2017-08-11T14:56:17.840Z,16.50
2017-08-11T15:01:21.064Z,16.50
2017-08-11T15:06:24.272Z,16.50
2017-08-11T15:11:27.455Z,16.50
2017-08-11T15:16:31.481Z,16.40
2017-08-11T15:21:35.431Z,16.30
2017-08-11T15:26:38.650Z,16.30
2017-08-11T15:31:41.838Z,16.30
2017-08-11T15:36:45.026Z,16.30
2017-08-11T15:41:48.280Z,16.30
2017-08-11T15:46:51.473Z,16.40
2017-08-11T15:51:54.702Z,16.60
2017-08-11T15:56:57.922Z,16.40
2017-08-11T16:02:01.509Z,16.40
2017-08-11T16:07:04.977Z,16.30
2017-08-11T16:12:08.182Z,16.10
2017-08-11T16:17:11.350Z,16.10
2017-08-11T16:22:14.655Z,16.00
2017-08-11T16:27:17.869Z,16.00
2017-08-11T16:32:21.070Z,16.10
2017-08-11T16:37:24.309Z,16.00
2017-08-11T16:42:27.717Z,16.00
2017-08-11T16:47:30.910Z,15.90
2017-08-11T16:52:34.099Z,15.90
2017-08-11T16:57:37.313Z,15.90
2017-08-11T17:02:40.518Z,16.00
2017-08-11T17:07:43.711Z,15.80
2017-08-11T17:12:46.912Z,15.80
2017-08-11T17:17:50.097Z,15.70
2017-08-11T17:22:53.298Z,15.70
2017-08-11T17:27:57.314Z,15.60
2017-08-11T17:33:01.275Z,15.50
2017-08-11T17:38:05.464Z,15.50
2017-08-11T17:43:08.762Z,15.50
2017-08-11T17:48:11.947Z,15.50
2017-08-11T17:53:15.140Z,15.50
2017-08-11T17:58:18.321Z,15.30
2017-08-11T18:03:21.555Z,15.30
2017-08-11T18:08:24.797Z,15.20
2017-08-11T18:13:27.985Z,15.20
2017-08-11T18:18:31.188Z,15.20
2017-08-11T18:23:34.381Z,15.10
2017-08-11T18:28:37.868Z,15.20
2017-08-11T18:33:41.336Z,15.10
2017-08-11T18:38:44.510Z,15.00
2017-08-11T18:43:47.761Z,15.00
2017-08-11T18:48:50.980Z,15.00
2017-08-11T18:53:54.938Z,14.90
2017-08-11T18:58:58.661Z,14.90
2017-08-11T19:04:02.080Z,14.90
2017-08-11T19:09:05.517Z,15.00
2017-08-11T19:14:08.711Z,15.00
2017-08-11T19:19:11.925Z,15.00
2017-08-11T19:24:15.326Z,15.00
2017-08-11T19:29:18.570Z,15.00
2017-08-11T19:34:21.816Z,15.00
2017-08-11T19:39:25.012Z,14.90
2017-08-11T19:44:28.993Z,14.90
2017-08-11T19:49:32.205Z,14.90
2017-08-11T19:54:35.382Z,15.00
2017-08-11T19:59:38.601Z,15.00
2017-08-11T20:04:41.789Z,15.00
2017-08-11T20:09:44.965Z,15.10
2017-08-11T20:20:23.614Z,14.90
2017-08-11T20:25:27.208Z,15.00
2017-08-11T20:30:30.723Z,15.00
2017-08-11T20:35:33.930Z,15.00
2017-08-11T20:40:37.721Z,14.90
2017-08-11T20:45:41.100Z,15.00
2017-08-11T20:50:45.366Z,14.90
2017-08-11T20:55:48.566Z,14.80
2017-08-11T21:00:51.751Z,14.80
2017-08-11T21:05:55.168Z,14.70
2017-08-11T21:10:59.068Z,14.80
2017-08-11T21:16:02.400Z,14.80
2017-08-11T21:21:06.140Z,14.60
2017-08-11T21:26:09.729Z,14.60
2017-08-11T21:31:12.941Z,14.50
2017-08-11T21:36:16.127Z,14.50
2017-08-11T21:41:20.091Z,14.40
2017-08-11T21:46:23.299Z,14.40
2017-08-11T21:51:26.491Z,14.50
2017-08-11T21:56:29.680Z,14.50
2017-08-11T22:01:33.681Z,14.50
2017-08-11T22:06:36.865Z,14.40
2017-08-11T22:11:40.090Z,14.40
2017-08-11T22:16:43.293Z,14.40
2017-08-11T22:21:46.489Z,14.20
2017-08-11T22:26:49.694Z,14.30
2017-08-11T22:31:52.950Z,14.30
2017-08-11T22:36:56.173Z,14.20
2017-08-11T22:41:59.464Z,14.10
2017-08-11T22:47:03.425Z,14.10
2017-08-11T22:52:06.686Z,14.00
2017-08-11T22:57:09.880Z,14.10
2017-08-11T23:02:13.837Z,14.10
2017-08-11T23:07:17.038Z,14.10
2017-08-11T23:12:20.210Z,14.10
2017-08-11T23:17:23.436Z,14.10
2017-08-11T23:22:27.419Z,14.20
2017-08-11T23:27:30.634Z,14.20
2017-08-11T23:32:33.839Z,14.10
2017-08-11T23:37:37.015Z,14.20
2017-08-11T23:42:40.194Z,14.10
2017-08-11T23:47:44.148Z,14.20
2017-08-11T23:52:47.332Z,14.20
2017-08-11T23:57:50.520Z,14.10
